Time;durP1;ratioP1;P1;durP2;ratioP2;P2;SDS_P1;SDS_P2;PMS_P1;PMS_P2;Temp;Humidity;BMP_temperature;BMP_pressure;BME280_temperature;BME280_humidity;BME280_pressure;Samples;Min_cycle;Max_cycle;Signal;HPM_P1;HPM_P2
2022/07/06 00:00:21;;;;;;;;;;;20.90;83.20;;;;;;4944024;28;19927;-76
2022/07/06 00:02:48;;;;;;;;;;;20.90;83.20;;;;;;4945133;28;20012;-75
2022/07/06 00:05:14;;;;;;;;;;;20.90;83.30;;;;;;4942701;28;19935;-76
2022/07/06 00:07:43;;;;;;;;;;;20.80;83.30;;;;;;4942942;28;19958;-76
2022/07/06 00:10:10;;;;;;;;;;;20.80;83.30;;;;;;4936663;28;19938;-75
2022/07/06 00:12:36;;;;;;;;;;;20.80;83.30;;;;;;4944918;28;19934;-76
2022/07/06 00:15:04;;;;;;;;;;;20.70;83.20;;;;;;4942176;28;20377;-75
2022/07/06 00:17:30;;;;;;;;;;;20.70;83.40;;;;;;4947909;28;20406;-77
2022/07/06 00:19:57;;;;;;;;;;;20.70;83.40;;;;;;4944307;28;19930;-76
2022/07/06 00:22:24;;;;;;;;;;;20.60;83.40;;;;;;4948989;28;19969;-75
2022/07/06 00:24:52;;;;;;;;;;;20.60;83.30;;;;;;4950837;28;20042;-75
2022/07/06 00:27:19;;;;;;;;;;;20.60;83.30;;;;;;4958476;28;20309;-76
2022/07/06 00:29:46;;;;;;;;;;;20.50;83.20;;;;;;4963382;28;19958;-74
2022/07/06 00:32:13;;;;;;;;;;;20.50;83.10;;;;;;4946488;28;20022;-75
2022/07/06 00:34:40;;;;;;;;;;;20.50;83.00;;;;;;4944651;28;20376;-76
2022/07/06 00:37:07;;;;;;;;;;;20.40;82.90;;;;;;4947834;28;19926;-76
2022/07/06 00:39:35;;;;;;;;;;;20.40;82.80;;;;;;4948217;28;20101;-75
2022/07/06 00:42:03;;;;;;;;;;;20.40;82.60;;;;;;4946128;28;20021;-76
2022/07/06 00:44:32;;;;;;;;;;;20.30;82.40;;;;;;4952118;28;19927;-75
2022/07/06 00:46:59;;;;;;;;;;;20.30;82.50;;;;;;4945594;28;20048;-75
2022/07/06 00:52:11;;;;;;;;;;;20.20;82.20;;;;;;4966864;28;19926;-76
2022/07/06 00:54:40;;;;;;;;;;;20.20;82.10;;;;;;5043985;23;19934;-76
2022/07/06 00:59:36;;;;;;;;;;;20.10;81.90;;;;;;4931118;29;19935;-74
2022/07/06 01:02:02;;;;;;;;;;;20.10;82.00;;;;;;4930965;29;20317;-73
2022/07/06 01:04:29;;;;;;;;;;;20.10;81.90;;;;;;4933145;29;20369;-74
2022/07/06 01:06:57;;;;;;;;;;;20.00;81.80;;;;;;4929232;29;19927;-74
2022/07/06 01:09:24;;;;;;;;;;;20.00;81.70;;;;;;4933169;28;20018;-72
2022/07/06 01:11:53;;;;;;;;;;;19.90;81.60;;;;;;4935342;29;20021;-74
2022/07/06 01:14:20;;;;;;;;;;;19.90;81.50;;;;;;4946312;28;19933;-72
2022/07/06 01:16:49;;;;;;;;;;;19.90;81.60;;;;;;4934131;29;19934;-73
2022/07/06 01:19:19;;;;;;;;;;;19.80;81.50;;;;;;4946713;28;19927;-72
2022/07/06 01:21:47;;;;;;;;;;;19.80;81.50;;;;;;4926750;28;19931;-73
2022/07/06 01:24:14;;;;;;;;;;;19.80;81.40;;;;;;4926769;29;20339;-74
2022/07/06 01:26:41;;;;;;;;;;;19.70;81.40;;;;;;4932893;29;20017;-74
2022/07/06 01:29:08;;;;;;;;;;;19.70;81.50;;;;;;4943250;28;19927;-74
2022/07/06 01:31:35;;;;;;;;;;;19.70;81.50;;;;;;4937953;29;19956;-73
2022/07/06 01:34:02;;;;;;;;;;;19.60;81.40;;;;;;4948661;28;19926;-73
2022/07/06 01:36:28;;;;;;;;;;;19.60;81.50;;;;;;4931371;29;20402;-73
2022/07/06 01:38:58;;;;;;;;;;;19.60;81.40;;;;;;4930264;29;19950;-73
2022/07/06 01:41:25;;;;;;;;;;;19.50;81.40;;;;;;4934564;28;19939;-74
2022/07/06 01:43:52;;;;;;;;;;;19.50;81.50;;;;;;4933183;29;19935;-74
2022/07/06 01:46:19;;;;;;;;;;;19.50;81.60;;;;;;4945063;28;19998;-73
2022/07/06 01:48:47;;;;;;;;;;;19.50;81.60;;;;;;4948989;28;19963;-73
2022/07/06 01:51:14;;;;;;;;;;;19.40;81.50;;;;;;4931275;29;19981;-72
2022/07/06 01:53:42;;;;;;;;;;;19.40;82.20;;;;;;4930906;29;19927;-72
2022/07/06 01:56:11;;;;;;;;;;;19.40;81.50;;;;;;4948185;28;19927;-73
2022/07/06 01:58:38;;;;;;;;;;;19.40;81.50;;;;;;4956224;28;20385;-75
2022/07/06 02:01:09;;;;;;;;;;;19.30;81.50;;;;;;4946665;28;19927;-76
2022/07/06 02:03:36;;;;;;;;;;;19.30;81.60;;;;;;4930913;29;19931;-75
2022/07/06 02:06:03;;;;;;;;;;;19.30;81.60;;;;;;4936808;28;20022;-76
2022/07/06 02:08:30;;;;;;;;;;;19.20;81.60;;;;;;4937041;28;19986;-75
2022/07/06 02:10:57;;;;;;;;;;;19.20;81.60;;;;;;4930998;29;19993;-75
2022/07/06 02:13:25;;;;;;;;;;;19.20;81.70;;;;;;4945789;28;19927;-76
2022/07/06 02:15:52;;;;;;;;;;;19.10;81.60;;;;;;4946563;28;19927;-75
2022/07/06 02:18:19;;;;;;;;;;;19.10;81.70;;;;;;4936609;29;20024;-75
2022/07/06 02:20:46;;;;;;;;;;;19.10;81.80;;;;;;4928774;29;19930;-76
2022/07/06 02:23:13;;;;;;;;;;;19.10;81.80;;;;;;4932166;29;19989;-75
2022/07/06 02:25:40;;;;;;;;;;;19.00;81.20;;;;;;4927983;29;19927;-76
2022/07/06 02:28:08;;;;;;;;;;;19.00;81.80;;;;;;4936872;28;20118;-77
2022/07/06 02:30:37;;;;;;;;;;;19.00;81.80;;;;;;4946648;28;19931;-76
2022/07/06 02:33:04;;;;;;;;;;;18.90;81.20;;;;;;4950115;28;19933;-76
2022/07/06 02:35:32;;;;;;;;;;;18.90;81.70;;;;;;4954239;28;19931;-76
2022/07/06 02:38:00;;;;;;;;;;;18.90;81.90;;;;;;4944231;28;20241;-75
2022/07/06 02:40:26;;;;;;;;;;;18.80;81.80;;;;;;4931531;29;19935;-75
2022/07/06 02:42:54;;;;;;;;;;;;;;;;;;4931940;29;19949;-75
2022/07/06 02:45:20;;;;;;;;;;;18.80;81.20;;;;;;4938854;29;19982;-75
2022/07/06 02:47:50;;;;;;;;;;;18.80;81.90;;;;;;4943095;28;20294;-75
2022/07/06 02:50:18;;;;;;;;;;;18.70;81.90;;;;;;4951779;28;19986;-75
2022/07/06 02:52:44;;;;;;;;;;;18.70;81.90;;;;;;4936017;29;20021;-76
2022/07/06 02:55:11;;;;;;;;;;;18.70;82.00;;;;;;4933900;29;19933;-75
2022/07/06 02:57:39;;;;;;;;;;;18.60;82.40;;;;;;4935039;28;20021;-75
2022/07/06 03:00:07;;;;;;;;;;;18.60;81.40;;;;;;4930647;29;20386;-76
2022/07/06 03:02:34;;;;;;;;;;;18.60;82.10;;;;;;4927252;29;19942;-76
2022/07/06 03:05:03;;;;;;;;;;;18.60;82.20;;;;;;4943632;28;19970;-75
2022/07/06 03:07:30;;;;;;;;;;;18.50;82.00;;;;;;4931434;29;20026;-74
2022/07/06 03:09:57;;;;;;;;;;;18.50;82.20;;;;;;4930955;29;19927;-73
2022/07/06 03:12:24;;;;;;;;;;;18.50;82.30;;;;;;4933731;28;20017;-73
2022/07/06 03:14:50;;;;;;;;;;;18.50;82.40;;;;;;4947437;28;19938;-77
2022/07/06 03:17:17;;;;;;;;;;;18.40;82.40;;;;;;4948264;28;19927;-76
2022/07/06 03:19:45;;;;;;;;;;;18.40;82.20;;;;;;4932218;29;19938;-76
2022/07/06 03:22:14;;;;;;;;;;;18.40;82.40;;;;;;4949274;28;20419;-75
2022/07/06 03:24:41;;;;;;;;;;;18.30;82.20;;;;;;4931429;29;20286;-75
2022/07/06 03:27:09;;;;;;;;;;;18.30;82.30;;;;;;4947351;28;19935;-72
2022/07/06 03:29:36;;;;;;;;;;;18.30;82.40;;;;;;4928353;29;20009;-77
2022/07/06 03:32:04;;;;;;;;;;;18.30;82.50;;;;;;4931768;29;20401;-75
2022/07/06 03:34:32;;;;;;;;;;;18.20;82.50;;;;;;4931467;29;20010;-76
2022/07/06 03:36:59;;;;;;;;;;;18.20;82.50;;;;;;4935672;29;19927;-75
2022/07/06 03:39:28;;;;;;;;;;;18.20;82.40;;;;;;4945509;28;19927;-75
2022/07/06 03:41:56;;;;;;;;;;;18.20;82.50;;;;;;4941842;28;19935;-73
2022/07/06 03:44:24;;;;;;;;;;;18.10;82.30;;;;;;4937173;28;19974;-72
2022/07/06 03:46:52;;;;;;;;;;;18.10;82.40;;;;;;4931255;29;19930;-73
2022/07/06 03:49:19;;;;;;;;;;;18.10;82.60;;;;;;4925986;28;20026;-75
2022/07/06 03:51:47;;;;;;;;;;;18.10;82.50;;;;;;4948625;28;19942;-73
2022/07/06 03:54:14;;;;;;;;;;;18.00;82.50;;;;;;4937451;28;19938;-74
2022/07/06 03:56:43;;;;;;;;;;;18.00;82.50;;;;;;4926572;29;19961;-74
2022/07/06 03:59:14;;;;;;;;;;;18.00;82.40;;;;;;4935827;28;19953;-73
2022/07/06 04:01:42;;;;;;;;;;;18.00;82.80;;;;;;4938176;28;19927;-73
2022/07/06 04:04:12;;;;;;;;;;;17.90;82.80;;;;;;4920422;29;19934;-74
2022/07/06 04:06:43;;;;;;;;;;;17.90;82.90;;;;;;4930113;28;20313;-73
2022/07/06 04:09:10;;;;;;;;;;;17.90;82.40;;;;;;4936806;28;19982;-72
2022/07/06 04:11:38;;;;;;;;;;;17.80;82.50;;;;;;4923846;29;20940;-74
2022/07/06 04:14:07;;;;;;;;;;;17.80;83.20;;;;;;4931883;29;19932;-74
2022/07/06 04:16:34;;;;;;;;;;;17.70;83.20;;;;;;4928637;29;20401;-73
2022/07/06 04:19:01;;;;;;;;;;;17.70;83.20;;;;;;4925954;29;20488;-73
2022/07/06 04:21:27;;;;;;;;;;;17.70;83.10;;;;;;4921192;29;20605;-73
2022/07/06 04:23:54;;;;;;;;;;;17.70;83.40;;;;;;4935436;28;20046;-74
2022/07/06 04:26:21;;;;;;;;;;;17.70;83.50;;;;;;4918632;29;20413;-73
2022/07/06 04:28:48;;;;;;;;;;;17.60;83.50;;;;;;4923874;29;20299;-74
2022/07/06 04:31:17;;;;;;;;;;;17.60;83.50;;;;;;4950553;28;19978;-73
2022/07/06 04:33:46;;;;;;;;;;;17.60;83.60;;;;;;4940880;28;20336;-75
2022/07/06 04:36:14;;;;;;;;;;;17.60;83.50;;;;;;4938688;28;20050;-75
2022/07/06 04:38:43;;;;;;;;;;;17.60;83.80;;;;;;4919604;29;19935;-76
2022/07/06 04:41:12;;;;;;;;;;;17.50;83.50;;;;;;4931150;28;19966;-74
2022/07/06 04:43:39;;;;;;;;;;;17.50;83.90;;;;;;4926845;29;19934;-76
2022/07/06 04:46:06;;;;;;;;;;;17.50;84.00;;;;;;4929795;29;20021;-76
2022/07/06 04:48:39;;;;;;;;;;;17.50;84.00;;;;;;4938109;28;20400;-76
2022/07/06 04:51:08;;;;;;;;;;;17.50;84.10;;;;;;4927308;29;20691;-78
2022/07/06 04:53:36;;;;;;;;;;;17.40;84.10;;;;;;4944512;28;19977;-77
2022/07/06 04:56:04;;;;;;;;;;;17.40;83.90;;;;;;4942480;28;19970;-72
2022/07/06 04:58:33;;;;;;;;;;;17.40;83.50;;;;;;4921751;29;19973;-74
2022/07/06 05:01:00;;;;;;;;;;;17.30;83.40;;;;;;4944349;28;19931;-74
2022/07/06 05:03:28;;;;;;;;;;;17.10;83.90;;;;;;4920114;29;19927;-72
2022/07/06 05:05:56;;;;;;;;;;;16.90;84.50;;;;;;4934939;28;19931;-74
2022/07/06 05:08:24;;;;;;;;;;;16.90;85.00;;;;;;4938247;28;19927;-73
2022/07/06 05:10:51;;;;;;;;;;;16.80;85.30;;;;;;4922329;29;19939;-73
2022/07/06 05:13:19;;;;;;;;;;;16.80;85.60;;;;;;4924287;29;19927;-74
2022/07/06 05:15:46;;;;;;;;;;;16.80;85.70;;;;;;4927486;29;20415;-74
2022/07/06 05:18:13;;;;;;;;;;;16.80;86.20;;;;;;4925010;28;20437;-74
2022/07/06 05:20:42;;;;;;;;;;;16.80;86.10;;;;;;4942996;28;20571;-74
2022/07/06 05:23:11;;;;;;;;;;;16.80;86.10;;;;;;4929532;29;19931;-73
2022/07/06 05:25:38;;;;;;;;;;;16.80;86.30;;;;;;4925437;29;20394;-74
2022/07/06 05:28:05;;;;;;;;;;;16.80;86.20;;;;;;4925362;29;19926;-73
2022/07/06 05:30:32;;;;;;;;;;;16.80;86.30;;;;;;4946007;28;19937;-74
2022/07/06 05:32:58;;;;;;;;;;;16.80;86.40;;;;;;4949085;28;19957;-74
2022/07/06 05:35:26;;;;;;;;;;;16.80;86.50;;;;;;4937616;28;20023;-74
2022/07/06 05:37:53;;;;;;;;;;;16.70;86.40;;;;;;4937282;28;19974;-73
2022/07/06 05:40:21;;;;;;;;;;;16.70;86.60;;;;;;4937268;28;19927;-74
2022/07/06 05:42:49;;;;;;;;;;;16.70;86.40;;;;;;4942724;28;19927;-74
2022/07/06 05:45:16;;;;;;;;;;;16.70;86.70;;;;;;4914459;29;20023;-75
2022/07/06 05:50:30;;;;;;;;;;;16.70;87.00;;;;;;4925291;29;20037;-75
2022/07/06 05:52:58;;;;;;;;;;;16.70;87.10;;;;;;4926775;29;19931;-74
2022/07/06 05:55:27;;;;;;;;;;;16.70;87.20;;;;;;4946121;28;20670;-74
2022/07/06 05:57:55;;;;;;;;;;;16.70;87.30;;;;;;4923295;29;19981;-74
2022/07/06 06:00:24;;;;;;;;;;;16.80;87.80;;;;;;4925208;29;19926;-74
2022/07/06 06:02:54;;;;;;;;;;;16.80;87.90;;;;;;4929705;29;19942;-72
2022/07/06 06:05:22;;;;;;;;;;;16.80;87.70;;;;;;4937290;28;19983;-76
2022/07/06 06:07:52;;;;;;;;;;;16.80;87.80;;;;;;4937542;28;19934;-75
2022/07/06 06:10:23;;;;;;;;;;;16.80;87.80;;;;;;4937326;28;20439;-76
2022/07/06 06:12:53;;;;;;;;;;;16.80;88.00;;;;;;4931111;28;20317;-78
2022/07/06 06:15:21;;;;;;;;;;;16.90;88.20;;;;;;4937723;28;19970;-75
2022/07/06 06:17:48;;;;;;;;;;;16.90;88.20;;;;;;4933593;29;19930;-75
2022/07/06 06:20:15;;;;;;;;;;;16.90;88.30;;;;;;4937873;29;20386;-75
2022/07/06 06:22:46;;;;;;;;;;;16.90;88.20;;;;;;4935596;29;19935;-76
2022/07/06 06:25:13;;;;;;;;;;;17.00;88.50;;;;;;4932808;29;20009;-75
2022/07/06 06:27:40;;;;;;;;;;;17.00;88.60;;;;;;4918321;28;19927;-74
2022/07/06 06:30:09;;;;;;;;;;;17.10;88.70;;;;;;4931219;29;20386;-77
2022/07/06 06:32:36;;;;;;;;;;;17.10;88.50;;;;;;4927915;29;19927;-75
2022/07/06 06:35:03;;;;;;;;;;;17.10;88.90;;;;;;4922243;29;19961;-75
2022/07/06 06:37:30;;;;;;;;;;;17.20;88.70;;;;;;4931118;29;20466;-75
2022/07/06 06:39:57;;;;;;;;;;;17.20;88.70;;;;;;4934788;28;20630;-76
2022/07/06 06:42:27;;;;;;;;;;;17.20;88.60;;;;;;4927842;29;19970;-76
2022/07/06 06:44:54;;;;;;;;;;;17.20;88.60;;;;;;4937078;28;20049;-75
2022/07/06 06:47:22;;;;;;;;;;;17.20;88.60;;;;;;4938209;28;19934;-75
2022/07/06 06:49:49;;;;;;;;;;;17.20;88.70;;;;;;4947236;28;19931;-75
2022/07/06 06:52:16;;;;;;;;;;;17.30;88.80;;;;;;4926972;29;19931;-75
2022/07/06 06:54:43;;;;;;;;;;;17.30;88.90;;;;;;4931621;29;20596;-77
2022/07/06 06:57:12;;;;;;;;;;;17.30;89.00;;;;;;4934272;29;20029;-75
2022/07/06 06:59:39;;;;;;;;;;;17.40;89.10;;;;;;4927765;29;20282;-74
2022/07/06 07:02:06;;;;;;;;;;;17.40;89.20;;;;;;4943505;28;19933;-74
2022/07/06 07:04:35;;;;;;;;;;;17.40;89.20;;;;;;4926956;29;20005;-74
2022/07/06 07:07:02;;;;;;;;;;;17.40;89.10;;;;;;4932635;29;19966;-74
2022/07/06 07:09:28;;;;;;;;;;;17.50;89.20;;;;;;4933202;29;19927;-74
2022/07/06 07:11:55;;;;;;;;;;;17.50;89.10;;;;;;4936204;28;20372;-74
2022/07/06 07:14:22;;;;;;;;;;;17.50;89.10;;;;;;4942193;28;19935;-74
2022/07/06 07:16:49;;;;;;;;;;;17.50;89.30;;;;;;4945471;28;20021;-73
2022/07/06 07:19:17;;;;;;;;;;;17.60;89.40;;;;;;4930968;28;19937;-75
2022/07/06 07:21:45;;;;;;;;;;;17.60;89.50;;;;;;4930124;29;20001;-75
2022/07/06 07:24:12;;;;;;;;;;;17.60;89.40;;;;;;4937850;28;19938;-76
2022/07/06 07:26:39;;;;;;;;;;;17.60;89.30;;;;;;4930963;28;20409;-76
2022/07/06 07:29:06;;;;;;;;;;;17.60;89.30;;;;;;4936811;28;19930;-75
2022/07/06 07:31:33;;;;;;;;;;;17.60;89.30;;;;;;4925021;29;19934;-75
2022/07/06 07:34:00;;;;;;;;;;;17.60;89.30;;;;;;4933559;29;19930;-74
2022/07/06 07:36:27;;;;;;;;;;;17.70;89.40;;;;;;4930528;29;20306;-74
2022/07/06 07:38:55;;;;;;;;;;;17.70;89.50;;;;;;4944982;28;19926;-76
2022/07/06 07:41:22;;;;;;;;;;;17.70;89.50;;;;;;4923617;29;19937;-74
2022/07/06 07:43:50;;;;;;;;;;;17.70;89.50;;;;;;4930993;29;19990;-75
2022/07/06 07:46:16;;;;;;;;;;;17.70;89.50;;;;;;4928574;29;20025;-75
2022/07/06 07:48:43;;;;;;;;;;;17.70;89.50;;;;;;4929588;28;20475;-74
2022/07/06 07:51:13;;;;;;;;;;;17.80;89.70;;;;;;4945340;28;19927;-75
2022/07/06 07:53:41;;;;;;;;;;;17.80;89.70;;;;;;4928682;29;20038;-75
2022/07/06 07:56:09;;;;;;;;;;;17.80;89.80;;;;;;4928571;29;19934;-75
2022/07/06 07:58:36;;;;;;;;;;;17.80;89.60;;;;;;4933862;28;19927;-75
2022/07/06 08:01:04;;;;;;;;;;;17.80;89.70;;;;;;4946082;28;20379;-75
2022/07/06 08:03:31;;;;;;;;;;;17.80;89.50;;;;;;4931299;29;19934;-75
2022/07/06 08:05:58;;;;;;;;;;;17.80;89.50;;;;;;4931380;29;19927;-75
2022/07/06 08:08:25;;;;;;;;;;;17.90;89.60;;;;;;4949673;28;19934;-76
2022/07/06 08:10:52;;;;;;;;;;;17.90;89.70;;;;;;4929147;28;20021;-74
2022/07/06 08:13:20;;;;;;;;;;;17.90;89.70;;;;;;4940647;28;20374;-77
2022/07/06 08:15:47;;;;;;;;;;;17.90;89.60;;;;;;4931802;29;20004;-76
2022/07/06 08:18:14;;;;;;;;;;;17.90;89.60;;;;;;4927342;29;19927;-74
2022/07/06 08:20:42;;;;;;;;;;;18.00;89.90;;;;;;4933798;28;20934;-73
2022/07/06 08:23:09;;;;;;;;;;;18.00;89.80;;;;;;4933558;29;19965;-74
2022/07/06 08:25:37;;;;;;;;;;;18.00;89.80;;;;;;4928017;28;19926;-74
2022/07/06 08:28:04;;;;;;;;;;;18.00;89.80;;;;;;4927133;29;19931;-73
2022/07/06 08:30:34;;;;;;;;;;;18.00;89.80;;;;;;4931147;29;20014;-73
2022/07/06 08:33:03;;;;;;;;;;;18.00;89.80;;;;;;4931218;28;19934;-73
2022/07/06 08:35:30;;;;;;;;;;;18.00;89.60;;;;;;4934033;29;19990;-74
2022/07/06 08:37:57;;;;;;;;;;;18.00;89.70;;;;;;4929805;29;20021;-74
2022/07/06 08:40:24;;;;;;;;;;;18.00;89.70;;;;;;4937889;29;19931;-74
2022/07/06 08:42:53;;;;;;;;;;;18.10;89.90;;;;;;4935284;29;19930;-74
2022/07/06 08:45:20;;;;;;;;;;;18.10;89.70;;;;;;4942218;29;20021;-74
2022/07/06 08:47:50;;;;;;;;;;;18.10;89.80;;;;;;4945179;28;19953;-74
2022/07/06 08:50:17;;;;;;;;;;;18.10;89.90;;;;;;4933815;29;19970;-74
2022/07/06 08:52:45;;;;;;;;;;;18.10;89.90;;;;;;4937742;29;19927;-74
2022/07/06 08:55:14;;;;;;;;;;;18.10;89.90;;;;;;4932947;29;20029;-74
2022/07/06 08:57:42;;;;;;;;;;;18.20;89.90;;;;;;4936323;29;20013;-74
2022/07/06 09:00:10;;;;;;;;;;;18.20;90.00;;;;;;4934294;29;20368;-74
2022/07/06 09:02:39;;;;;;;;;;;18.20;90.00;;;;;;4927281;29;19974;-74
2022/07/06 09:05:10;;;;;;;;;;;18.20;89.90;;;;;;4928154;29;20029;-74
2022/07/06 09:07:40;;;;;;;;;;;18.20;89.90;;;;;;4940512;29;19930;-74
2022/07/06 09:10:10;;;;;;;;;;;18.20;90.00;;;;;;4934192;28;19927;-74
2022/07/06 09:12:38;;;;;;;;;;;18.20;90.00;;;;;;4928900;29;19930;-74
2022/07/06 09:15:06;;;;;;;;;;;18.30;90.00;;;;;;4932101;29;19978;-77
2022/07/06 09:17:38;;;;;;;;;;;18.30;90.00;;;;;;4929797;28;19927;-75
2022/07/06 09:20:11;;;;;;;;;;;18.30;89.90;;;;;;4938934;28;19938;-74
2022/07/06 09:22:39;;;;;;;;;;;18.30;90.00;;;;;;4936403;28;19927;-74
2022/07/06 09:25:08;;;;;;;;;;;18.30;90.00;;;;;;4929189;29;19935;-73
2022/07/06 09:27:38;;;;;;;;;;;18.30;90.00;;;;;;4934538;29;19938;-73
2022/07/06 09:30:07;;;;;;;;;;;18.30;89.90;;;;;;4934639;29;20018;-74
2022/07/06 09:32:42;;;;;;;;;;;18.30;89.20;;;;;;4934012;29;19965;-74
2022/07/06 09:35:21;;;;;;;;;;;18.30;89.30;;;;;;4933877;29;19974;-75
2022/07/06 09:37:57;;;;;;;;;;;18.30;89.40;;;;;;4936972;28;19934;-74
2022/07/06 09:40:25;;;;;;;;;;;18.40;89.50;;;;;;4925150;29;19927;-74
2022/07/06 09:42:54;;;;;;;;;;;18.30;89.40;;;;;;4924765;29;19927;-74
2022/07/06 09:45:22;;;;;;;;;;;18.40;88.80;;;;;;4927112;29;19927;-74
2022/07/06 09:47:51;;;;;;;;;;;18.40;88.40;;;;;;4929722;29;20442;-74
2022/07/06 09:50:21;;;;;;;;;;;18.40;87.90;;;;;;4927737;28;20022;-74
2022/07/06 09:52:54;;;;;;;;;;;18.40;87.70;;;;;;4930963;29;19934;-75
2022/07/06 09:55:24;;;;;;;;;;;18.40;88.30;;;;;;4933532;29;19927;-76
2022/07/06 09:57:56;;;;;;;;;;;18.40;88.50;;;;;;4929434;29;19927;-75
2022/07/06 10:00:25;;;;;;;;;;;18.40;88.40;;;;;;4931980;28;19993;-74
2022/07/06 10:02:53;;;;;;;;;;;18.50;88.50;;;;;;4935111;29;19927;-74
2022/07/06 10:05:26;;;;;;;;;;;18.50;88.50;;;;;;4928368;29;19933;-74
2022/07/06 10:07:56;;;;;;;;;;;18.50;88.20;;;;;;4930802;29;19931;-75
2022/07/06 10:10:24;;;;;;;;;;;18.50;88.40;;;;;;4930381;29;19941;-74
2022/07/06 10:12:51;;;;;;;;;;;18.50;88.40;;;;;;4931648;28;19930;-76
2022/07/06 10:15:19;;;;;;;;;;;18.60;88.40;;;;;;4920578;29;19931;-74
2022/07/06 10:17:47;;;;;;;;;;;18.60;88.30;;;;;;4937553;29;20018;-75
2022/07/06 10:20:16;;;;;;;;;;;18.60;88.40;;;;;;4930497;29;20354;-75
2022/07/06 10:22:44;;;;;;;;;;;18.60;88.50;;;;;;4931049;29;19927;-74
2022/07/06 10:25:12;;;;;;;;;;;18.60;88.00;;;;;;4928488;29;20679;-75
2022/07/06 10:27:38;;;;;;;;;;;18.70;87.80;;;;;;4933481;29;19977;-75
2022/07/06 10:30:06;;;;;;;;;;;18.70;87.60;;;;;;4931598;29;19934;-74
2022/07/06 10:32:33;;;;;;;;;;;18.70;88.10;;;;;;4933240;29;19969;-74
2022/07/06 10:35:00;;;;;;;;;;;18.70;88.10;;;;;;4932158;29;20461;-78
2022/07/06 10:37:32;;;;;;;;;;;18.70;87.90;;;;;;4936315;29;19927;-75
2022/07/06 10:42:49;;;;;;;;;;;18.80;87.60;;;;;;4928211;29;19927;-75
2022/07/06 10:45:19;;;;;;;;;;;18.80;87.60;;;;;;4932410;29;20390;-74
2022/07/06 10:47:51;;;;;;;;;;;18.80;87.30;;;;;;4936719;29;19930;-76
2022/07/06 10:50:19;;;;;;;;;;;18.90;87.50;;;;;;4936874;29;19930;-75
2022/07/06 10:52:51;;;;;;;;;;;18.90;87.50;;;;;;4926386;29;20272;-76
2022/07/06 10:55:31;;;;;;;;;;;18.90;87.70;;;;;;4928919;29;19977;-75
2022/07/06 10:58:00;;;;;;;;;;;18.90;87.20;;;;;;4931048;28;20647;-75
2022/07/06 11:00:27;;;;;;;;;;;18.90;87.50;;;;;;4931630;29;19973;-75
2022/07/06 11:02:53;;;;;;;;;;;19.00;87.50;;;;;;4925242;29;19960;-75
2022/07/06 11:05:44;;;;;;;;;;;19.00;87.40;;;;;;4936807;28;20423;-74
2022/07/06 11:08:11;;;;;;;;;;;19.00;87.10;;;;;;4918940;29;20349;-74
2022/07/06 11:10:49;;;;;;;;;;;19.00;86.40;;;;;;4928021;29;19927;-74
2022/07/06 11:13:33;;;;;;;;;;;19.10;86.80;;;;;;4928091;29;19927;-75
2022/07/06 11:16:03;;;;;;;;;;;19.10;87.00;;;;;;4936665;29;19935;-74
2022/07/06 11:18:39;;;;;;;;;;;19.10;87.10;;;;;;4936059;28;19926;-74
2022/07/06 11:21:19;;;;;;;;;;;19.10;86.90;;;;;;4923435;29;20460;-74
2022/07/06 11:23:47;;;;;;;;;;;19.10;87.00;;;;;;4926382;29;19930;-74
2022/07/06 11:26:15;;;;;;;;;;;19.20;86.90;;;;;;4947685;28;19963;-74
2022/07/06 11:28:42;;;;;;;;;;;19.20;86.40;;;;;;4927816;29;19926;-73
2022/07/06 11:31:09;;;;;;;;;;;19.30;86.50;;;;;;4930350;29;20009;-74
2022/07/06 11:33:36;;;;;;;;;;;19.30;86.40;;;;;;4919996;29;19927;-74
2022/07/06 11:36:13;;;;;;;;;;;19.30;86.50;;;;;;4926151;29;19954;-74
2022/07/06 11:38:39;;;;;;;;;;;19.40;86.40;;;;;;4923614;28;20421;-73
2022/07/06 11:41:06;;;;;;;;;;;19.50;86.10;;;;;;4940673;28;20018;-74
2022/07/06 11:43:37;;;;;;;;;;;19.50;86.10;;;;;;4934339;28;19962;-74
2022/07/06 11:46:04;;;;;;;;;;;19.60;85.80;;;;;;4934720;29;20460;-73
2022/07/06 11:48:31;;;;;;;;;;;19.50;86.00;;;;;;4936386;28;19933;-74
2022/07/06 11:50:59;;;;;;;;;;;19.60;85.90;;;;;;4928627;29;19939;-74
2022/07/06 11:53:25;;;;;;;;;;;19.60;85.90;;;;;;4930894;29;19927;-74
2022/07/06 11:55:52;;;;;;;;;;;19.60;85.50;;;;;;4927366;29;20473;-75
2022/07/06 11:58:21;;;;;;;;;;;19.60;85.80;;;;;;4930173;28;20404;-74
2022/07/06 12:03:44;;;;;;;;;;;19.70;85.90;;;;;;5116258;27;19922;-77
2022/07/06 12:06:16;;;;;;;;;;;19.70;86.10;;;;;;5119959;27;19928;-74
2022/07/06 12:08:47;;;;;;;;;;;19.70;86.20;;;;;;5104981;27;20489;-77
2022/07/06 12:11:19;;;;;;;;;;;19.80;86.50;;;;;;5095589;28;19977;-75
2022/07/06 12:13:50;;;;;;;;;;;19.80;86.10;;;;;;5095055;28;19935;-77
2022/07/06 12:16:17;;;;;;;;;;;19.90;86.20;;;;;;5098946;28;19928;-75
2022/07/06 12:18:48;;;;;;;;;;;19.90;86.60;;;;;;5093188;28;20010;-74
2022/07/06 12:21:18;;;;;;;;;;;19.90;86.40;;;;;;5100124;28;20451;-75
2022/07/06 12:23:45;;;;;;;;;;;20.00;86.30;;;;;;5100184;28;19932;-75
2022/07/06 12:26:12;;;;;;;;;;;20.00;86.60;;;;;;5093643;28;20398;-74
2022/07/06 12:28:40;;;;;;;;;;;20.10;86.40;;;;;;5102592;28;19932;-75
2022/07/06 12:31:07;;;;;;;;;;;20.10;86.30;;;;;;5103753;28;20366;-75
2022/07/06 12:33:34;;;;;;;;;;;20.10;86.80;;;;;;5100240;28;21520;-76
2022/07/06 12:36:13;;;;;;;;;;;20.20;86.30;;;;;;5100004;28;20035;-75
2022/07/06 12:38:47;;;;;;;;;;;20.20;86.20;;;;;;5104457;28;19924;-74
2022/07/06 12:41:31;;;;;;;;;;;20.20;86.10;;;;;;5099299;28;20010;-75
2022/07/06 12:44:03;;;;;;;;;;;20.30;86.10;;;;;;5099230;28;19931;-77
2022/07/06 12:46:31;;;;;;;;;;;20.40;85.70;;;;;;5099066;28;20299;-75
2022/07/06 12:48:58;;;;;;;;;;;20.40;85.70;;;;;;5096609;28;19928;-75
2022/07/06 12:51:26;;;;;;;;;;;20.50;85.50;;;;;;5091564;28;19924;-75
2022/07/06 12:53:53;;;;;;;;;;;20.50;85.40;;;;;;5094837;28;19990;-76
2022/07/06 12:56:20;;;;;;;;;;;20.60;85.40;;;;;;5100957;28;20305;-76
2022/07/06 12:58:57;;;;;;;;;;;20.60;85.60;;;;;;5135706;27;20556;-75
2022/07/06 13:01:24;;;;;;;;;;;20.60;84.90;;;;;;5092432;28;19977;-75
2022/07/06 13:03:54;;;;;;;;;;;20.60;84.80;;;;;;5096297;28;19928;-75
2022/07/06 13:06:29;;;;;;;;;;;20.70;85.00;;;;;;5128295;27;19986;-74
2022/07/06 13:08:56;;;;;;;;;;;20.70;85.00;;;;;;5086704;28;19931;-74
2022/07/06 13:11:23;;;;;;;;;;;20.70;85.10;;;;;;5096920;28;19987;-75
2022/07/06 13:13:50;;;;;;;;;;;20.80;85.20;;;;;;5092164;28;20374;-75
2022/07/06 13:16:17;;;;;;;;;;;20.80;84.90;;;;;;5111277;27;20386;-75
2022/07/06 13:18:44;;;;;;;;;;;20.90;84.70;;;;;;5080307;28;19939;-74
2022/07/06 13:21:11;;;;;;;;;;;20.90;83.90;;;;;;5078042;28;19939;-75
2022/07/06 13:23:39;;;;;;;;;;;21.00;84.60;;;;;;5080929;28;19931;-74
2022/07/06 13:26:06;;;;;;;;;;;21.00;84.40;;;;;;5072712;28;19927;-74
2022/07/06 13:28:33;;;;;;;;;;;21.00;84.20;;;;;;5075813;28;19928;-74
2022/07/06 13:31:00;;;;;;;;;;;21.10;84.30;;;;;;5073146;28;19924;-73
2022/07/06 13:33:27;;;;;;;;;;;21.10;84.20;;;;;;5077575;28;20009;-73
2022/07/06 13:35:54;;;;;;;;;;;21.20;83.70;;;;;;5084685;28;19970;-74
2022/07/06 13:38:21;;;;;;;;;;;21.20;83.60;;;;;;5085088;28;20465;-74
2022/07/06 13:40:50;;;;;;;;;;;21.30;83.70;;;;;;5118646;27;19924;-74
2022/07/06 13:43:17;;;;;;;;;;;21.30;83.90;;;;;;5084870;28;19924;-73
2022/07/06 13:45:43;;;;;;;;;;;21.30;83.80;;;;;;5083855;28;19928;-73
2022/07/06 13:48:10;;;;;;;;;;;21.30;83.70;;;;;;5076148;28;19937;-73
2022/07/06 13:50:37;;;;;;;;;;;21.40;83.80;;;;;;5090382;28;19971;-73
2022/07/06 13:53:04;;;;;;;;;;;21.40;83.90;;;;;;5081720;28;19924;-74
2022/07/06 13:55:32;;;;;;;;;;;21.50;84.10;;;;;;5086206;28;20034;-75
2022/07/06 13:58:00;;;;;;;;;;;21.50;83.60;;;;;;5082859;28;20398;-76
2022/07/06 14:00:27;;;;;;;;;;;21.50;83.90;;;;;;5083628;28;19923;-78
2022/07/06 14:02:54;;;;;;;;;;;21.60;84.30;;;;;;5082884;28;19932;-75
2022/07/06 14:05:21;;;;;;;;;;;21.60;84.20;;;;;;5081019;28;19931;-75
2022/07/06 14:07:48;;;;;;;;;;;21.70;84.20;;;;;;5087411;28;20015;-76
2022/07/06 14:10:14;;;;;;;;;;;21.70;84.00;;;;;;5085458;28;19924;-75
2022/07/06 14:12:41;;;;;;;;;;;21.80;84.40;;;;;;5082951;28;19924;-78
2022/07/06 14:15:10;;;;;;;;;;;21.80;84.30;;;;;;5085689;28;19955;-75
2022/07/06 14:17:37;;;;;;;;;;;21.80;84.60;;;;;;5087299;28;19924;-77
2022/07/06 14:20:04;;;;;;;;;;;21.90;84.80;;;;;;5082836;28;20796;-78
2022/07/06 14:22:31;;;;;;;;;;;21.90;84.90;;;;;;5082268;28;19927;-76
2022/07/06 14:24:58;;;;;;;;;;;22.00;84.80;;;;;;5081281;28;20015;-76
2022/07/06 14:27:25;;;;;;;;;;;22.00;84.60;;;;;;5081136;28;19932;-76
2022/07/06 14:29:52;;;;;;;;;;;22.00;84.40;;;;;;5084812;28;19924;-74
2022/07/06 14:32:20;;;;;;;;;;;22.10;84.60;;;;;;5080529;28;20306;-75
2022/07/06 14:34:47;;;;;;;;;;;22.20;84.70;;;;;;5086059;28;19927;-74
2022/07/06 14:37:13;;;;;;;;;;;22.20;84.80;;;;;;5086901;28;19932;-74